Missoula, MT

11:08 AM MDT on October 21, 2014 (GMT -0600)
Franklin to the Fort | Change Station
CLOSE
Current Station
Personal Weather Station
Location: Missoula, MT
Elevation: 975 m
Nearby Weather Stations

Elev 975 m 46.86 °N, 114.02 °W | Updated 1 second ago

Overcast
Overcast
7.8 °C
Feels Like 7 °C
N
6.4
Wind Variable Wind from SE
Gusts 9.7 km/h

Today
High -- | Low -- °C
--% Chance of Precip.
Yesterday
High -- | Low -- °C
Precip. -- mm
8:02 AM 6:38 PM
Waning Crescent, 5% visible
Pressure 1012 hPa
Visibility 16.1 kilometers
Clouds Few 944 m
Mostly Cloudy 1310 m
Overcast 1676 m
Windchill 7 °C
Dew Point 7 °C
Humidity 97%
Rainfall 9 mm
Snow Depth 0 in
UV 1 out of 12
Pollen .40 out of 12
Air Quality Not available.
Flu Activity No Activity
METAR KMSO 211653Z 28003KT 10SM FEW031 BKN043 OVC055 09/08 A2986 RMK AO2 RAE23 SLP116 P0001 T00890078

More Conditions Fewer Conditions

Pressure 1012 hPa
Visibility 16.1 kilometers
Clouds Few 944 m
Mostly Cloudy 1310 m
Overcast 1676 m
Windchill 7 °C
Dew Point 7 °C
Humidity 97%
Rainfall 9 mm
Snow Depth 0 in
UV 1 out of 12
Pollen .40 out of 12
Air Quality Not available.
Flu Activity No Activity
METAR KMSO 211653Z 28003KT 10SM FEW031 BKN043 OVC055 09/08 A2986 RMK AO2 RAE23 SLP116 P0001 T00890078

More Conditions Fewer Conditions

10-Day Weather Forecast

Almanac

Astronomy

Oct. 21, 2014 Rise Set
Actual Time 8:02 AM MDT 6:38 PM MDT
Civil Twilight 7:31 AM MDT 7:09 PM MDT
Nautical Twilight 6:56 AM MDT 7:44 PM MDT
Astronomical Twilight 6:21 AM MDT 8:19 PM MDT
Moon 5:42 AM MDT 5:40 PM MDT
Length of Visible Light 11h 37m
Length of Day
10h 35m
Tomorrow will be 3m 10s shorter.
Waning Crescent, 5% of the Moon is Illuminated
Today
Waning Crescent
Oct 23
New
Oct 30
First Quarter
Nov 6
Full
Nov 14
Last Quarter

Today's Extremes

State Highs State Lows

Community

WunderPhotos

Upload Photos

1,763,713 photos uploaded!

Nearby

Snow Depth

Station Depth Elevation
Stuart Mountain 0 in 7400 ft
Sleeping Woman 0 in 6150 ft
North Fork Jocko 0 in 6330 ft
Lubrecht Flume 0 in 4680 ft
North Fork Elk Creek 1 in 6250 ft

Earthquake Activity

City Distance Mag. Time & Date
No recent earthquake activity has been reported nearby.
Minimum magnitude displayed is 2.5.

Coastal Water Temperatures

Place Temperature
No Stations Reporting

Nearby Weather Stations